createdAt,value
2019-02-02T00:01:34.373Z,80.36
2019-02-02T00:04:03.008Z,79.89
2019-02-02T00:06:31.486Z,79.97
2019-02-02T00:09:00.251Z,79.86
2019-02-02T00:11:28.686Z,80.00
2019-02-02T00:13:57.382Z,80.19
2019-02-02T00:16:25.935Z,80.21
2019-02-02T00:18:54.890Z,80.40
2019-02-02T00:21:23.444Z,80.34
2019-02-02T00:23:51.927Z,80.54
2019-02-02T00:26:20.443Z,80.84
2019-02-02T00:28:49.090Z,80.73
2019-02-02T00:31:18.049Z,80.93
2019-02-02T00:33:47.006Z,80.99
2019-02-02T00:36:15.438Z,80.85
2019-02-02T00:38:44.495Z,81.08
2019-02-02T00:41:13.095Z,81.71
2019-02-02T00:43:41.679Z,81.75
2019-02-02T00:46:10.129Z,81.86
2019-02-02T00:48:39.182Z,81.91
2019-02-02T00:51:07.635Z,81.90
2019-02-02T00:53:36.348Z,81.69
2019-02-02T00:56:08.043Z,81.80
2019-02-02T00:58:36.644Z,81.65
2019-02-02T01:01:06.061Z,81.44
2019-02-02T01:03:35.226Z,81.79
2019-02-02T01:06:04.961Z,81.49
2019-02-02T01:08:33.556Z,81.63
2019-02-02T01:11:02.101Z,82.04
2019-02-02T01:13:30.529Z,82.12
2019-02-02T01:15:59.539Z,82.06
2019-02-02T01:18:28.048Z,82.11
2019-02-02T01:20:57.114Z,82.45
2019-02-02T01:23:25.747Z,82.62
2019-02-02T01:25:54.309Z,82.33
2019-02-02T01:28:22.826Z,82.42
2019-02-02T01:30:51.289Z,82.34
2019-02-02T01:33:19.898Z,82.48
2019-02-02T01:35:48.542Z,82.52
2019-02-02T01:38:16.981Z,82.41
2019-02-02T01:40:45.587Z,82.46
2019-02-02T01:43:14.004Z,82.46
2019-02-02T01:45:42.437Z,82.10
2019-02-02T01:48:11.082Z,82.10
2019-02-02T01:50:39.596Z,82.01
2019-02-02T01:53:08.100Z,81.75
2019-02-02T01:55:36.554Z,81.69
2019-02-02T01:58:16.007Z,81.87
2019-02-02T02:00:35.399Z,81.94
2019-02-02T02:03:04.113Z,81.83
2019-02-02T02:05:33.694Z,81.81
2019-02-02T02:08:02.688Z,81.74
2019-02-02T02:10:31.270Z,81.69
2019-02-02T02:12:59.719Z,81.64
2019-02-02T02:15:28.549Z,81.63
2019-02-02T02:17:57.351Z,81.92
2019-02-02T02:20:26.535Z,82.03
2019-02-02T02:22:55.318Z,82.47
2019-02-02T02:25:24.002Z,82.11
2019-02-02T02:27:52.450Z,81.88
2019-02-02T02:30:22.418Z,81.62
2019-02-02T02:32:51.386Z,81.60
2019-02-02T02:35:20.408Z,81.68
2019-02-02T02:37:49.793Z,81.99
2019-02-02T02:40:22.177Z,82.13
2019-02-02T02:42:50.731Z,81.94
2019-02-02T02:45:19.840Z,82.28
2019-02-02T02:47:48.728Z,82.10
2019-02-02T02:50:18.639Z,82.41
2019-02-02T02:52:47.195Z,82.21
2019-02-02T02:55:16.423Z,82.31
2019-02-02T02:57:44.944Z,82.70
2019-02-02T03:00:32.847Z,82.35
2019-02-02T03:03:01.623Z,82.19
2019-02-02T03:05:30.063Z,82.52
2019-02-02T03:07:58.799Z,82.58
2019-02-02T03:10:27.451Z,82.81
2019-02-02T03:12:55.932Z,82.82
2019-02-02T03:15:24.691Z,82.98
2019-02-02T03:17:53.235Z,82.73
2019-02-02T03:20:21.829Z,82.56
2019-02-02T03:22:50.669Z,82.63
2019-02-02T03:25:20.845Z,82.65
2019-02-02T03:27:49.355Z,82.40
2019-02-02T03:30:19.024Z,82.22
2019-02-02T03:32:47.510Z,82.27
2019-02-02T03:35:17.805Z,82.22
2019-02-02T03:37:46.921Z,82.36
2019-02-02T03:40:17.307Z,82.58
2019-02-02T03:42:45.883Z,82.60
2019-02-02T03:45:16.299Z,82.52
2019-02-02T03:47:44.863Z,82.27
2019-02-02T03:50:13.434Z,82.12
2019-02-02T03:52:42.218Z,81.86
2019-02-02T03:55:11.923Z,81.62
2019-02-02T03:57:40.432Z,81.68
2019-02-02T04:00:11.876Z,82.02
2019-02-02T04:02:40.422Z,82.06
2019-02-02T04:05:11.890Z,82.19
2019-02-02T04:07:40.787Z,82.02
2019-02-02T04:10:09.779Z,81.92
2019-02-02T04:12:38.234Z,81.82
2019-02-02T04:15:07.138Z,81.76
2019-02-02T04:17:35.664Z,81.77
2019-02-02T04:20:05.620Z,81.59
2019-02-02T04:22:35.766Z,81.51
2019-02-02T04:25:05.749Z,81.57
2019-02-02T04:27:34.504Z,81.70
2019-02-02T04:30:03.475Z,81.72
2019-02-02T04:32:32.330Z,81.63
2019-02-02T04:35:03.573Z,81.68
2019-02-02T04:37:32.401Z,81.65
2019-02-02T04:40:01.074Z,81.64
2019-02-02T04:42:29.557Z,81.69
2019-02-02T04:44:58.417Z,81.74
2019-02-02T04:47:27.062Z,81.46
2019-02-02T04:49:55.615Z,81.39
2019-02-02T04:52:24.678Z,81.42
2019-02-02T04:54:53.579Z,81.66
2019-02-02T04:57:21.999Z,81.67
2019-02-02T04:59:50.862Z,81.65
2019-02-02T05:02:19.777Z,81.70
2019-02-02T05:04:48.622Z,81.70
2019-02-02T05:07:17.323Z,81.73
2019-02-02T05:09:46.125Z,81.79
2019-02-02T05:12:14.957Z,81.60
2019-02-02T05:14:44.101Z,81.47
2019-02-02T05:17:12.557Z,81.62
2019-02-02T05:19:41.120Z,82.00
2019-02-02T05:22:09.617Z,81.82
2019-02-02T05:24:38.176Z,81.53
2019-02-02T05:27:06.681Z,81.35
2019-02-02T05:29:41.504Z,81.50
2019-02-02T05:32:05.572Z,81.78
2019-02-02T05:34:34.391Z,81.85
2019-02-02T05:37:02.908Z,82.00
2019-02-02T05:39:31.447Z,82.02
2019-02-02T05:42:00.291Z,82.02
2019-02-02T05:44:28.766Z,81.85
2019-02-02T05:46:57.215Z,81.76
2019-02-02T05:49:25.763Z,81.68
2019-02-02T05:51:54.704Z,81.82
2019-02-02T05:54:23.261Z,81.82
2019-02-02T05:56:51.754Z,81.85
2019-02-02T05:59:20.522Z,81.72
2019-02-02T06:01:49.318Z,81.81
2019-02-02T06:04:17.895Z,81.67
2019-02-02T06:06:46.686Z,81.38
2019-02-02T06:09:15.214Z,81.60
2019-02-02T06:11:44.017Z,81.81
2019-02-02T06:14:12.989Z,81.81
2019-02-02T06:16:41.509Z,81.97
2019-02-02T06:19:10.309Z,82.02
2019-02-02T06:21:38.805Z,81.94
2019-02-02T06:24:07.587Z,82.14
2019-02-02T06:26:36.106Z,82.11
2019-02-02T06:29:04.869Z,82.29
2019-02-02T06:31:33.467Z,82.50
2019-02-02T06:34:02.005Z,82.47
2019-02-02T06:36:30.624Z,82.55
2019-02-02T06:38:59.052Z,82.67
2019-02-02T06:41:27.899Z,82.77
2019-02-02T06:43:56.348Z,82.46
2019-02-02T06:46:25.168Z,82.50
2019-02-02T06:48:53.609Z,82.32
2019-02-02T06:51:22.662Z,82.51
2019-02-02T06:53:51.204Z,82.45
2019-02-02T06:56:19.670Z,82.27
2019-02-02T06:58:48.191Z,82.41
2019-02-02T07:01:17.175Z,82.63
2019-02-02T07:03:45.605Z,82.74
2019-02-02T07:06:14.622Z,82.82
2019-02-02T07:08:43.328Z,82.85
2019-02-02T07:11:12.297Z,82.85
2019-02-02T07:13:40.890Z,83.02
2019-02-02T07:16:10.021Z,83.14
2019-02-02T07:18:38.541Z,82.99
2019-02-02T07:21:06.981Z,82.86
2019-02-02T07:23:35.642Z,82.67
2019-02-02T07:26:04.415Z,83.05
2019-02-02T07:28:32.906Z,83.09
2019-02-02T07:31:01.349Z,83.17
2019-02-02T07:33:30.180Z,83.40
2019-02-02T07:35:59.195Z,83.38
2019-02-02T07:38:27.699Z,83.16
2019-02-02T07:40:56.457Z,83.11
2019-02-02T07:43:25.381Z,83.05
2019-02-02T07:45:54.186Z,82.75
2019-02-02T07:48:22.622Z,82.62
2019-02-02T07:50:51.507Z,82.45
2019-02-02T07:53:20.029Z,82.00
2019-02-02T07:55:48.765Z,82.38
2019-02-02T07:58:17.323Z,82.40
2019-02-02T08:00:45.763Z,82.50
2019-02-02T08:03:14.372Z,82.32
2019-02-02T08:05:43.193Z,82.24
2019-02-02T08:08:12.170Z,82.44
2019-02-02T08:10:40.794Z,82.34
2019-02-02T08:13:09.554Z,82.62
2019-02-02T08:15:38.089Z,82.72
2019-02-02T08:18:06.716Z,82.57
2019-02-02T08:20:35.719Z,82.48
2019-02-02T08:23:04.177Z,82.39
2019-02-02T08:25:32.655Z,82.15
2019-02-02T08:28:01.216Z,82.35
2019-02-02T08:30:31.607Z,82.55
2019-02-02T08:33:00.369Z,82.47
2019-02-02T08:35:29.554Z,82.46
2019-02-02T08:37:58.484Z,82.33
2019-02-02T08:40:26.913Z,82.52
2019-02-02T08:42:55.620Z,82.33
2019-02-02T08:45:24.141Z,81.93
2019-02-02T08:47:52.835Z,81.67
2019-02-02T08:50:27.329Z,81.47
2019-02-02T08:52:55.943Z,81.30
2019-02-02T08:55:24.505Z,80.91
2019-02-02T08:57:53.612Z,80.71
2019-02-02T09:00:22.139Z,81.06
2019-02-02T09:02:50.727Z,81.40
2019-02-02T09:05:20.280Z,81.25
2019-02-02T09:07:48.691Z,81.05
2019-02-02T09:10:22.381Z,81.02
2019-02-02T09:12:51.014Z,81.26
2019-02-02T09:15:19.568Z,81.45
2019-02-02T09:17:48.468Z,81.70
2019-02-02T09:20:16.942Z,81.95
2019-02-02T09:22:45.947Z,81.55
2019-02-02T09:25:15.880Z,81.37
2019-02-02T09:27:44.663Z,81.54
2019-02-02T09:30:16.077Z,81.53
2019-02-02T09:32:44.497Z,81.14
2019-02-02T09:35:12.940Z,81.27
2019-02-02T09:37:41.396Z,81.33
2019-02-02T09:40:11.316Z,81.66
2019-02-02T09:42:39.752Z,81.57
2019-02-02T09:45:09.861Z,80.94
2019-02-02T09:47:38.640Z,81.19
2019-02-02T09:50:09.713Z,80.86
2019-02-02T09:52:38.167Z,80.61
2019-02-02T09:55:08.625Z,80.69
2019-02-02T09:57:37.175Z,80.49
2019-02-02T10:00:08.448Z,80.78
2019-02-02T10:02:37.009Z,80.78
2019-02-02T10:05:05.735Z,80.70
2019-02-02T10:07:34.336Z,80.32
2019-02-02T10:10:05.344Z,80.13
2019-02-02T10:12:34.237Z,80.14
2019-02-02T10:15:06.191Z,80.17
2019-02-02T10:17:34.748Z,79.89
2019-02-02T10:20:03.536Z,79.86
2019-02-02T10:22:31.974Z,79.70
2019-02-02T10:25:00.745Z,79.45
2019-02-02T10:27:29.708Z,79.55
2019-02-02T10:29:58.226Z,79.06
2019-02-02T10:32:26.940Z,79.49
2019-02-02T10:34:55.440Z,79.49
2019-02-02T10:37:24.331Z,80.08
2019-02-02T10:39:55.164Z,79.74
2019-02-02T10:42:23.673Z,79.85
2019-02-02T10:44:52.295Z,79.10
2019-02-02T10:47:21.894Z,79.48
2019-02-02T10:49:51.597Z,79.62
2019-02-02T10:52:20.148Z,79.54
2019-02-02T10:54:48.667Z,79.26
2019-02-02T10:57:17.192Z,79.74
2019-02-02T10:59:45.637Z,79.98
2019-02-02T11:02:17.822Z,80.01
2019-02-02T11:04:47.289Z,79.96
2019-02-02T11:07:15.963Z,79.87
2019-02-02T11:09:44.860Z,79.83
2019-02-02T11:12:13.336Z,79.97
2019-02-02T11:14:42.257Z,79.99
2019-02-02T11:17:11.367Z,79.41
2019-02-02T11:19:40.347Z,79.91
2019-02-02T11:22:08.904Z,80.13
2019-02-02T11:24:37.596Z,79.76
2019-02-02T11:27:06.419Z,79.69
2019-02-02T11:29:35.350Z,79.15
2019-02-02T11:32:03.975Z,78.32
2019-02-02T11:34:32.666Z,78.33
2019-02-02T11:37:01.346Z,77.80
2019-02-02T11:39:29.896Z,77.77
2019-02-02T11:41:58.643Z,77.05
2019-02-02T11:44:27.126Z,76.96
2019-02-02T11:46:55.931Z,76.84
2019-02-02T11:49:24.407Z,76.59
2019-02-02T11:51:53.098Z,76.73
2019-02-02T11:54:21.538Z,76.27
2019-02-02T11:56:50.368Z,76.82
2019-02-02T11:59:18.807Z,76.98
2019-02-02T12:01:47.251Z,76.78
2019-02-02T12:04:16.026Z,76.85
2019-02-02T12:06:44.496Z,76.78
2019-02-02T12:09:12.926Z,76.86
2019-02-02T12:11:41.384Z,76.88
2019-02-02T12:14:09.987Z,76.78
2019-02-02T12:16:38.441Z,76.91
2019-02-02T12:19:06.890Z,76.61
2019-02-02T12:21:35.700Z,76.05
2019-02-02T12:24:14.197Z,76.22
2019-02-02T12:26:34.849Z,76.31
2019-02-02T12:29:03.679Z,76.31
2019-02-02T12:31:32.160Z,75.75
2019-02-02T12:34:00.615Z,75.47
2019-02-02T12:36:29.062Z,75.18
2019-02-02T12:38:58.324Z,75.23
2019-02-02T12:41:26.769Z,75.39
2019-02-02T12:43:55.220Z,74.97
2019-02-02T12:46:23.665Z,74.92
2019-02-02T12:48:52.107Z,75.02
2019-02-02T12:51:20.556Z,75.41
2019-02-02T12:53:49.025Z,75.23
2019-02-02T12:56:17.470Z,75.26
2019-02-02T12:58:46.026Z,75.81
2019-02-02T13:01:14.758Z,76.51
2019-02-02T13:03:43.201Z,77.04
2019-02-02T13:06:11.677Z,76.39
2019-02-02T13:08:40.137Z,76.16
2019-02-02T13:11:08.819Z,77.33
2019-02-02T13:13:37.278Z,77.43
2019-02-02T13:16:06.043Z,77.50
2019-02-02T13:18:34.482Z,77.10
2019-02-02T13:21:02.910Z,77.25
2019-02-02T13:23:31.362Z,78.05
2019-02-02T13:26:05.648Z,77.24
2019-02-02T13:28:30.908Z,77.26
2019-02-02T13:30:59.692Z,77.16
2019-02-02T13:33:28.148Z,77.25
2019-02-02T13:35:56.574Z,76.95
2019-02-02T13:38:25.012Z,76.54
2019-02-02T13:40:53.561Z,76.66
2019-02-02T13:43:22.062Z,76.59
2019-02-02T13:45:50.890Z,76.98
2019-02-02T13:48:19.639Z,77.37
2019-02-02T13:50:48.079Z,76.99
2019-02-02T13:53:16.570Z,77.24
2019-02-02T13:55:45.029Z,77.65
2019-02-02T13:58:13.695Z,77.86
2019-02-02T14:00:42.212Z,77.70
2019-02-02T14:03:10.689Z,78.29
2019-02-02T14:05:39.637Z,78.50
2019-02-02T14:08:08.341Z,78.52
2019-02-02T14:10:36.779Z,78.66
2019-02-02T14:13:05.546Z,78.59
2019-02-02T14:15:34.231Z,79.08
2019-02-02T14:18:02.982Z,78.96
2019-02-02T14:20:31.675Z,79.12
2019-02-02T14:23:00.625Z,79.29
2019-02-02T14:25:29.071Z,79.33
2019-02-02T14:27:57.495Z,79.29
2019-02-02T14:30:26.571Z,79.62
2019-02-02T14:32:55.466Z,79.86
2019-02-02T14:35:25.783Z,79.79
2019-02-02T14:37:54.291Z,79.89
2019-02-02T14:40:22.998Z,80.21
2019-02-02T14:42:51.878Z,80.37
2019-02-02T14:45:21.521Z,80.91
2019-02-02T14:47:50.687Z,80.73
2019-02-02T14:50:20.623Z,81.29
2019-02-02T14:52:49.629Z,81.15
2019-02-02T14:55:21.441Z,81.37
2019-02-02T14:57:49.864Z,81.48
2019-02-02T15:00:23.396Z,81.91
2019-02-02T15:02:51.879Z,81.91
2019-02-02T15:05:21.578Z,81.85
2019-02-02T15:07:50.022Z,81.93
2019-02-02T15:10:18.733Z,81.87
2019-02-02T15:12:47.237Z,81.87
2019-02-02T15:15:15.794Z,81.65
2019-02-02T15:17:44.778Z,81.60
2019-02-02T15:20:40.264Z,81.74
2019-02-02T15:23:08.690Z,82.11
2019-02-02T15:25:37.456Z,82.16
2019-02-02T15:28:06.023Z,82.28
2019-02-02T15:30:35.139Z,82.49
2019-02-02T15:33:03.586Z,82.47
2019-02-02T15:35:32.372Z,82.59
2019-02-02T15:38:00.816Z,82.65
2019-02-02T15:40:31.719Z,82.47
2019-02-02T15:43:01.677Z,82.54
2019-02-02T15:45:30.397Z,82.87
2019-02-02T15:47:59.388Z,83.01
2019-02-02T15:50:27.850Z,82.96
2019-02-02T15:52:56.277Z,83.37
2019-02-02T15:55:24.771Z,83.56
2019-02-02T15:57:53.199Z,83.87
2019-02-02T16:00:32.906Z,83.83
2019-02-02T16:03:01.639Z,83.70
2019-02-02T16:05:30.105Z,83.86
2019-02-02T16:07:59.974Z,83.69
2019-02-02T16:10:29.458Z,83.58
2019-02-02T16:12:58.322Z,83.93
2019-02-02T16:15:27.430Z,83.93
2019-02-02T16:17:55.867Z,83.98
2019-02-02T16:20:26.867Z,83.70
2019-02-02T16:22:58.382Z,83.73
2019-02-02T16:25:26.899Z,83.46
2019-02-02T16:27:55.385Z,83.39
2019-02-02T16:30:25.197Z,83.00
2019-02-02T16:32:53.989Z,83.80
2019-02-02T16:35:22.432Z,83.75
2019-02-02T16:37:51.127Z,83.90
2019-02-02T16:40:21.278Z,83.91
2019-02-02T16:42:50.033Z,83.97
2019-02-02T16:45:23.457Z,84.06
2019-02-02T16:47:52.715Z,83.97
2019-02-02T16:50:21.241Z,83.80
2019-02-02T16:52:49.695Z,84.08
2019-02-02T16:55:18.476Z,83.79
2019-02-02T16:57:46.920Z,83.87
2019-02-02T17:00:18.019Z,83.81
2019-02-02T17:02:46.522Z,84.06
2019-02-02T17:05:15.093Z,83.93
2019-02-02T17:07:46.265Z,83.91
2019-02-02T17:10:16.368Z,83.99
2019-02-02T17:12:44.662Z,84.00
2019-02-02T17:15:13.385Z,84.01
2019-02-02T17:17:41.965Z,83.87
2019-02-02T17:20:13.521Z,84.01
2019-02-02T17:22:42.002Z,84.09
2019-02-02T17:25:12.652Z,84.16
2019-02-02T17:27:41.095Z,84.26
2019-02-02T17:30:12.076Z,84.36
2019-02-02T17:32:40.517Z,84.22
2019-02-02T17:35:10.151Z,84.23
2019-02-02T17:37:38.602Z,84.34
2019-02-02T17:40:10.502Z,84.36
2019-02-02T17:42:39.270Z,84.33
2019-02-02T17:45:10.238Z,84.42
2019-02-02T17:47:38.683Z,84.69
2019-02-02T17:50:09.244Z,84.55
2019-02-02T17:52:37.703Z,84.61
2019-02-02T17:55:06.855Z,84.18
2019-02-02T17:57:35.327Z,84.29
2019-02-02T18:00:04.568Z,84.61
2019-02-02T18:02:33.100Z,84.58
2019-02-02T18:05:01.601Z,84.88
2019-02-02T18:07:30.002Z,84.73
2019-02-02T18:09:58.492Z,84.74
2019-02-02T18:12:27.224Z,84.79
2019-02-02T18:14:55.977Z,84.54
2019-02-02T18:17:24.419Z,84.39
2019-02-02T18:19:52.863Z,84.57
2019-02-02T18:22:21.323Z,84.67
2019-02-02T18:24:49.767Z,84.74
2019-02-02T18:27:18.217Z,84.53
2019-02-02T18:29:46.954Z,84.53
2019-02-02T18:32:15.704Z,84.36
2019-02-02T18:34:51.030Z,84.61
2019-02-02T18:37:14.314Z,84.55
2019-02-02T18:39:42.761Z,84.62
2019-02-02T18:42:11.200Z,84.78
2019-02-02T18:44:39.652Z,84.76
2019-02-02T18:47:08.370Z,84.77
2019-02-02T18:49:36.831Z,84.97
2019-02-02T18:52:06.180Z,84.88
2019-02-02T18:54:34.717Z,84.95
2019-02-02T18:57:03.156Z,84.96
2019-02-02T18:59:32.221Z,84.97
2019-02-02T19:02:00.721Z,84.97
2019-02-02T19:04:29.175Z,85.02
2019-02-02T19:06:57.655Z,84.86
2019-02-02T19:09:26.311Z,84.93
2019-02-02T19:11:54.848Z,85.00
2019-02-02T19:14:23.303Z,84.92
2019-02-02T19:17:00.763Z,85.04
2019-02-02T19:19:22.276Z,85.08
2019-02-02T19:21:51.095Z,85.04
2019-02-02T19:24:19.535Z,85.27
2019-02-02T19:26:47.970Z,85.27
2019-02-02T19:29:17.783Z,85.18
2019-02-02T19:31:46.212Z,85.06
2019-02-02T19:34:14.934Z,85.09
2019-02-02T19:36:43.367Z,85.11
2019-02-02T19:39:11.872Z,85.24
2019-02-02T19:41:40.307Z,85.21
2019-02-02T19:44:08.798Z,85.13
2019-02-02T19:46:37.547Z,85.16
2019-02-02T19:49:06.326Z,85.19
2019-02-02T19:51:35.048Z,85.22
2019-02-02T19:54:03.813Z,85.29
2019-02-02T19:56:32.929Z,85.42
2019-02-02T19:59:01.382Z,85.37
2019-02-02T20:01:29.846Z,85.33
2019-02-02T20:03:58.564Z,85.36
2019-02-02T20:06:27.020Z,85.43
2019-02-02T20:08:55.710Z,85.38
2019-02-02T20:11:24.405Z,85.46
2019-02-02T20:13:53.145Z,85.60
2019-02-02T20:16:21.866Z,85.71
2019-02-02T20:18:50.302Z,85.74
2019-02-02T20:21:19.037Z,85.89
2019-02-02T20:23:47.466Z,85.94
2019-02-02T20:26:15.915Z,85.99
2019-02-02T20:28:46.732Z,85.98
2019-02-02T20:31:14.766Z,86.04
2019-02-02T20:33:43.211Z,85.90
2019-02-02T20:36:11.657Z,85.93
2019-02-02T20:38:40.260Z,86.08
2019-02-02T20:41:08.710Z,86.20
2019-02-02T20:43:37.406Z,86.17
2019-02-02T20:46:05.902Z,86.08
2019-02-02T20:48:34.333Z,86.14
2019-02-02T20:51:02.960Z,86.23
2019-02-02T20:53:31.747Z,86.07
2019-02-02T20:56:00.186Z,86.07
2019-02-02T20:58:28.619Z,86.11
2019-02-02T21:00:57.063Z,86.25
2019-02-02T21:03:25.728Z,86.24
2019-02-02T21:05:54.559Z,86.23
2019-02-02T21:08:22.983Z,86.31
2019-02-02T21:10:51.446Z,86.37
2019-02-02T21:13:19.945Z,86.51
2019-02-02T21:15:48.442Z,86.66
2019-02-02T21:18:18.852Z,86.76
2019-02-02T21:20:47.328Z,86.64
2019-02-02T21:23:15.785Z,86.64
2019-02-02T21:25:44.246Z,86.60
2019-02-02T21:28:12.699Z,86.55
2019-02-02T21:30:41.512Z,86.61
2019-02-02T21:33:10.266Z,86.64
2019-02-02T21:35:38.779Z,86.69
2019-02-02T21:38:07.568Z,86.69
2019-02-02T21:40:36.105Z,86.70
2019-02-02T21:43:05.194Z,86.59
2019-02-02T21:45:33.897Z,86.70
2019-02-02T21:48:02.344Z,86.84
2019-02-02T21:50:31.015Z,86.88
2019-02-02T21:52:59.722Z,86.87
2019-02-02T21:55:28.747Z,86.99
2019-02-02T21:57:57.459Z,86.99
2019-02-02T22:00:28.735Z,86.94
2019-02-02T22:02:57.188Z,86.92
2019-02-02T22:05:25.655Z,86.75
2019-02-02T22:07:54.107Z,86.66
2019-02-02T22:10:22.578Z,86.67
2019-02-02T22:12:52.800Z,86.72
2019-02-02T22:15:22.379Z,86.78
2019-02-02T22:17:50.827Z,86.77
2019-02-02T22:20:19.280Z,86.68
2019-02-02T22:22:47.773Z,86.72
2019-02-02T22:25:18.157Z,86.63
2019-02-02T22:27:46.913Z,86.68
2019-02-02T22:30:18.115Z,86.78
2019-02-02T22:32:46.560Z,86.75
2019-02-02T22:35:14.995Z,86.76
2019-02-02T22:37:43.453Z,86.67
2019-02-02T22:40:15.804Z,86.70
2019-02-02T22:42:44.263Z,86.63
2019-02-02T22:45:14.809Z,86.70
2019-02-02T22:47:43.583Z,86.69
2019-02-02T22:50:14.237Z,86.69
2019-02-02T22:52:43.294Z,86.62
2019-02-02T22:55:12.669Z,86.57
2019-02-02T22:57:41.480Z,86.45
2019-02-02T23:01:00.457Z,86.51
2019-02-02T23:03:40.950Z,86.44
2019-02-02T23:07:06.665Z,86.43
2019-02-02T23:10:14.118Z,86.53
2019-02-02T23:13:09.058Z,86.45
2019-02-02T23:16:20.943Z,86.20
2019-02-02T23:18:49.951Z,86.02
2019-02-02T23:21:18.401Z,85.76
2019-02-02T23:23:47.190Z,86.11
2019-02-02T23:26:15.633Z,86.06
2019-02-02T23:28:44.096Z,86.09
2019-02-02T23:31:12.538Z,86.01
2019-02-02T23:33:41.627Z,85.90
2019-02-02T23:36:10.408Z,86.03
2019-02-02T23:38:38.865Z,86.12
2019-02-02T23:41:07.320Z,85.91
2019-02-02T23:43:36.063Z,85.72
2019-02-02T23:46:04.845Z,85.83
2019-02-02T23:48:33.527Z,86.06
2019-02-02T23:51:02.319Z,86.08
2019-02-02T23:53:31.316Z,86.16
2019-02-02T23:56:00.303Z,86.06
2019-02-02T23:58:28.735Z,86.10
